Time;durP1;ratioP1;P1;durP2;ratioP2;P2;SDS_P1;SDS_P2;PMS_P1;PMS_P2;Temp;Humidity;BMP_temperature;BMP_pressure;BME280_temperature;BME280_humidity;BME280_pressure;Samples;Min_cycle;Max_cycle;Signal;HPM_P1;HPM_P2
2023/05/29 04:19:35;;;;;;;18.27;14.68;;;17.50;99.90;;;;;;6280770;22;20070;-92
2023/05/29 05:35:39;;;;;;;26.08;23.63;;;28.60;99.90;;;;;;6247859;22;19919;31
2023/05/29 05:38:07;;;;;;;26.55;24.38;;;28.60;99.90;;;;;;6168446;23;20071;-94
2023/05/29 05:40:34;;;;;;;25.58;23.63;;;28.10;99.90;;;;;;6178034;23;20008;-93
2023/05/29 05:43:11;;;;;;;25.80;23.65;;;28.20;99.90;;;;;;6198077;23;20492;-94
2023/05/29 05:46:10;;;;;;;26.20;24.17;;;27.60;99.90;;;;;;6125621;23;20010;-90
2023/05/29 05:48:38;;;;;;;25.80;23.73;;;27.60;99.90;;;;;;6101272;23;20010;-92
2023/05/29 05:51:05;;;;;;;25.95;23.48;;;27.80;99.90;;;;;;6078766;23;20006;-92
2023/05/29 05:53:32;;;;;;;26.25;23.88;;;27.40;99.90;;;;;;6079524;23;20010;-91
2023/05/29 05:55:59;;;;;;;25.90;23.98;;;27.00;99.90;;;;;;6101709;23;20030;-92
2023/05/29 05:58:26;;;;;;;26.00;23.65;;;27.00;99.90;;;;;;6079004;23;20010;-90
2023/05/29 06:00:53;;;;;;;24.65;22.75;;;26.70;99.90;;;;;;6101448;23;20491;-90
2023/05/29 06:03:20;;;;;;;25.05;22.73;;;26.60;99.90;;;;;;6101661;23;20508;-91
2023/05/29 06:05:58;;;;;;;25.90;23.70;;;26.90;99.90;;;;;;6079213;23;20479;-91
2023/05/29 06:08:25;;;;;;;25.40;23.27;;;27.60;99.90;;;;;;6101122;23;20037;-92
2023/05/29 06:10:55;;;;;;;25.63;23.38;;;27.80;99.90;;;;;;6078296;23;20006;-93
2023/05/29 06:13:22;;;;;;;26.42;23.83;;;28.20;99.90;;;;;;6101405;23;20069;-91
2023/05/29 06:15:54;;;;;;;25.60;23.50;;;28.50;99.90;;;;;;6078008;23;20018;-92
2023/05/29 06:18:21;;;;;;;25.70;23.20;;;28.40;99.90;;;;;;6077571;23;20411;-92
2023/05/29 06:20:47;;;;;;;24.63;22.70;;;27.60;99.90;;;;;;6090510;23;20344;-93
2023/05/29 06:23:15;;;;;;;25.08;22.75;;;27.60;99.90;;;;;;6195926;23;20004;-93
2023/05/29 06:25:41;;;;;;;25.00;22.80;;;27.80;99.90;;;;;;6221765;23;20004;-93
2023/05/29 06:28:08;;;;;;;25.45;23.13;;;28.20;99.90;;;;;;6196356;23;20460;-92
2023/05/29 06:30:35;;;;;;;25.73;23.55;;;28.40;99.90;;;;;;6221608;23;20010;-93
2023/05/29 06:33:06;;;;;;;24.50;22.38;;;28.40;99.90;;;;;;6196397;23;20414;-94
2023/05/29 06:35:32;;;;;;;24.70;22.70;;;28.10;99.90;;;;;;6221914;23;20008;-92
2023/05/29 06:37:59;;;;;;;25.10;23.20;;;28.00;99.90;;;;;;6224270;22;20511;-93
2023/05/29 06:40:26;;;;;;;26.85;23.52;;;28.20;99.90;;;;;;6225528;22;20008;-93
2023/05/29 06:42:53;;;;;;;25.00;23.05;;;28.70;99.90;;;;;;6225278;22;20016;-92
2023/05/29 06:45:39;;;;;;;24.52;22.73;;;28.60;99.90;;;;;;6229041;22;20039;-92
2023/05/29 14:56:54;;;;;;;24.58;22.80;;;26.60;99.90;;;;;;6236857;22;20957;31
2023/05/29 15:37:54;;;;;;;23.77;21.90;;;26.00;99.90;;;;;;6240380;22;20050;-89
2023/05/29 16:16:56;;;;;;;21.95;20.35;;;25.10;99.90;;;;;;6289759;22;20053;-94
2023/05/29 16:19:43;;;;;;;22.35;20.65;;;25.10;99.90;;;;;;6241646;22;20020;-92
2023/05/29 16:28:00;;;;;;;21.13;19.63;;;24.80;99.90;;;;;;6252733;22;20076;-92
2023/05/29 16:33:15;;;;;;;21.88;20.08;;;24.40;99.90;;;;;;6283907;22;20069;-91
2023/05/29 16:36:09;;;;;;;22.42;20.83;;;24.40;99.90;;;;;;6201476;23;20103;-94
2023/05/29 16:39:40;;;;;;;;;;;;;;;;;;;;;
2023/05/29 16:42:49;;;;;;;21.38;19.83;;;24.60;99.90;;;;;;6234135;22;20107;-95
2023/05/29 16:57:18;;;;;;;21.55;20.08;;;24.10;99.90;;;;;;6211276;22;20024;-91
2023/05/29 17:05:47;;;;;;;21.60;20.00;;;24.00;99.90;;;;;;6273849;22;20114;-95
2023/05/29 17:08:13;;;;;;;21.63;20.02;;;23.90;99.90;;;;;;6232642;22;20018;-92
2023/05/29 17:14:28;;;;;;;22.02;20.15;;;23.70;99.90;;;;;;6136656;23;20041;-94
2023/05/29 18:45:07;;;;;;;24.80;22.42;;;21.50;99.90;;;;;;6267113;22;20029;-94
2023/05/29 18:47:33;;;;;;;;;;;21.40;99.90;;;;;;6262289;22;20105;-93
2023/05/29 19:03:55;;;;;;;21.90;18.75;;;21.30;99.90;;;;;;5664771;22;15138906;-92
2023/05/29 19:12:45;;;;;;;21.67;17.45;;;21.00;99.90;;;;;;6383469;22;20029;-92
2023/05/29 19:15:16;;;;;;;21.40;18.88;;;21.00;99.90;;;;;;6357719;22;20083;-93
2023/05/29 19:18:05;;;;;;;19.40;17.40;;;21.00;99.90;;;;;;6330776;22;20392;-92
2023/05/29 19:21:15;;;;;;;18.52;16.63;;;21.00;99.90;;;;;;6300216;22;20009;-93
2023/05/29 19:30:20;;;;;;;18.00;16.30;;;20.90;99.90;;;;;;6289406;22;20098;-92
2023/05/29 19:32:50;;;;;;;17.80;15.73;;;20.90;99.90;;;;;;6262989;22;20022;-92
2023/05/29 19:35:16;;;;;;;16.45;14.93;;;20.90;99.90;;;;;;6243603;22;20234;-92
2023/05/29 19:38:07;;;;;;;17.88;15.88;;;20.80;99.90;;;;;;6240673;23;20035;-93
2023/05/29 19:40:56;;;;;;;18.23;16.35;;;20.90;99.90;;;;;;6231887;23;20007;-93
2023/05/29 19:44:05;;;;;;;17.92;16.17;;;20.80;99.90;;;;;;6208190;23;20012;-94
2023/05/29 19:46:33;;;;;;;19.27;17.27;;;20.70;99.90;;;;;;6234069;23;20004;-94
2023/05/29 19:49:00;;;;;;;18.95;17.05;;;20.60;99.90;;;;;;6234230;23;20087;-93
2023/05/29 19:51:30;;;;;;;17.95;16.00;;;20.50;99.90;;;;;;6233233;23;20012;-93
2023/05/29 19:53:57;;;;;;;26.40;16.70;;;20.50;99.90;;;;;;6233438;23;20007;-92
2023/05/29 19:56:37;;;;;;;18.10;16.15;;;20.50;99.90;;;;;;6233618;23;20053;-93
2023/05/29 20:02:04;;;;;;;18.65;15.38;;;20.40;99.90;;;;;;6335663;22;20470;-93
2023/05/29 20:31:33;;;;;;;16.25;13.93;;;20.30;99.90;;;;;;6306856;22;20031;-92
2023/05/29 20:34:00;;;;;;;19.00;13.90;;;20.20;99.90;;;;;;6231466;22;20061;-92
2023/05/29 20:37:03;;;;;;;17.90;13.73;;;20.20;99.90;;;;;;6230741;22;20028;-92
2023/05/29 20:39:53;;;;;;;16.90;13.65;;;20.20;99.90;;;;;;6258383;22;20322;-91
2023/05/29 20:42:22;;;;;;;16.27;13.52;;;20.20;99.90;;;;;;6257214;22;20091;-93
2023/05/29 20:44:55;;;;;;;16.40;12.98;;;20.20;99.90;;;;;;6257752;22;20031;-94
2023/05/29 20:47:25;;;;;;;21.83;13.20;;;20.20;99.90;;;;;;6256295;22;20011;-92
2023/05/29 20:49:52;;;;;;;18.90;12.52;;;20.20;99.90;;;;;;6256128;22;20018;-93
2023/05/29 20:52:20;;;;;;;18.08;12.05;;;20.20;99.90;;;;;;6256312;22;20011;-93
2023/05/29 20:54:47;;;;;;;18.38;12.32;;;20.20;99.90;;;;;;6256326;22;20012;-92
2023/05/29 20:57:15;;;;;;;20.55;11.82;;;20.10;99.90;;;;;;6256733;22;20007;-91
2023/05/29 20:59:44;;;;;;;16.42;11.57;;;20.10;99.90;;;;;;6256774;22;20101;-93
2023/05/29 21:02:14;;;;;;;16.30;12.57;;;20.00;99.90;;;;;;6257290;22;20003;-92
2023/05/29 21:04:40;;;;;;;15.80;11.45;;;20.00;99.90;;;;;;6256573;22;20008;-92
2023/05/29 21:07:08;;;;;;;17.85;12.65;;;20.00;99.90;;;;;;6256371;22;20008;-93
2023/05/29 21:09:34;;;;;;;23.35;12.02;;;20.00;99.90;;;;;;6257000;22;20003;-93
2023/05/29 21:12:01;;;;;;;19.05;12.65;;;20.00;99.90;;;;;;6230088;22;20011;-91
2023/05/29 21:14:28;;;;;;;17.40;11.60;;;20.10;99.90;;;;;;6261000;22;20003;-91
2023/05/29 21:16:57;;;;;;;16.92;11.93;;;20.00;99.90;;;;;;6253684;22;20004;-92
2023/05/29 21:19:24;;;;;;;18.17;11.55;;;20.00;99.90;;;;;;6251873;22;20014;-91
2023/05/29 21:21:51;;;;;;;19.42;12.32;;;20.00;99.90;;;;;;6251758;22;20083;-92
2023/05/29 21:24:17;;;;;;;26.85;12.52;;;20.00;99.90;;;;;;6252010;22;20008;-92
2023/05/29 21:26:44;;;;;;;20.85;12.10;;;20.00;99.90;;;;;;6252164;22;20011;-92
2023/05/29 21:29:10;;;;;;;23.83;12.27;;;20.00;99.90;;;;;;6247000;22;20498;-91
2023/05/29 21:31:40;;;;;;;18.50;12.32;;;20.00;99.90;;;;;;6263168;22;20015;-92
2023/05/29 21:34:08;;;;;;;17.92;11.77;;;20.00;99.90;;;;;;6282986;22;20015;-92
2023/05/29 21:36:38;;;;;;;24.25;12.00;;;19.90;99.90;;;;;;6282881;22;20007;-91
2023/05/29 21:39:06;;;;;;;22.90;13.25;;;19.90;99.90;;;;;;6282841;22;20011;-91
2023/05/29 21:41:32;;;;;;;20.92;11.77;;;19.90;99.90;;;;;;6282324;22;20072;-94
2023/05/29 21:43:59;;;;;;;24.92;13.43;;;19.90;99.90;;;;;;6282096;22;20007;-92
2023/05/29 21:46:25;;;;;;;24.02;14.38;;;19.90;99.90;;;;;;6282661;22;20314;-92
2023/05/29 21:48:52;;;;;;;22.98;12.90;;;19.90;99.90;;;;;;6282392;22;20010;-92
2023/05/29 21:51:19;;;;;;;20.17;13.75;;;19.80;99.90;;;;;;6282241;22;20037;-92
2023/05/29 21:53:45;;;;;;;24.30;14.52;;;19.80;99.90;;;;;;6282411;22;20007;-90
2023/05/29 21:56:12;;;;;;;21.80;14.98;;;19.80;99.90;;;;;;6282282;22;20436;-90
2023/05/29 21:58:39;;;;;;;26.45;15.35;;;19.80;99.90;;;;;;6282292;22;20010;-92
2023/05/29 22:01:09;;;;;;;27.83;15.23;;;19.80;99.90;;;;;;6282047;22;20082;-91
2023/05/29 22:03:35;;;;;;;23.67;14.20;;;19.80;99.90;;;;;;6282088;22;20011;-92
2023/05/29 22:06:02;;;;;;;22.48;13.05;;;19.80;99.90;;;;;;6281990;22;20347;-93
2023/05/29 22:08:41;;;;;;;21.98;13.38;;;19.70;99.90;;;;;;6281999;22;20013;-92
2023/05/29 22:11:08;;;;;;;25.27;14.40;;;19.70;99.90;;;;;;6282060;22;20021;-92
2023/05/29 22:13:38;;;;;;;28.45;16.13;;;19.70;99.90;;;;;;6282001;22;20003;-91
2023/05/29 22:16:07;;;;;;;27.25;15.55;;;19.70;99.90;;;;;;6282167;22;20014;-93
2023/05/29 22:18:45;;;;;;;24.52;13.63;;;19.70;99.90;;;;;;6282249;22;20015;-92
2023/05/29 22:21:12;;;;;;;32.30;15.05;;;19.70;99.90;;;;;;6282692;22;20007;-92
2023/05/29 22:23:44;;;;;;;29.63;14.70;;;19.70;99.90;;;;;;6282420;22;20003;-93
2023/05/29 22:26:20;;;;;;;22.58;14.60;;;19.60;99.90;;;;;;6282403;22;20011;-91
2023/05/29 22:28:47;;;;;;;26.88;14.93;;;19.60;99.90;;;;;;6281562;22;20003;-92
2023/05/29 22:31:19;;;;;;;24.45;13.77;;;19.60;99.90;;;;;;6281946;22;20529;-92
2023/05/29 22:33:46;;;;;;;25.00;15.18;;;19.60;99.90;;;;;;6283107;22;20010;-92
2023/05/29 22:36:12;;;;;;;29.88;14.65;;;19.70;99.90;;;;;;6282499;22;20011;-91
2023/05/29 22:38:39;;;;;;;25.17;14.60;;;19.70;99.90;;;;;;6282300;22;19999;-92
2023/05/29 22:41:06;;;;;;;34.97;16.70;;;19.60;99.90;;;;;;6282684;22;20061;-93
2023/05/29 22:43:33;;;;;;;28.33;16.08;;;19.60;99.90;;;;;;6282279;22;20011;-93
2023/05/29 22:45:59;;;;;;;34.65;19.02;;;19.50;99.90;;;;;;6282019;22;20078;-91
2023/05/29 22:48:26;;;;;;;35.45;19.60;;;19.50;99.90;;;;;;6290493;22;20078;-91
2023/05/29 22:50:57;;;;;;;39.65;20.13;;;19.50;99.90;;;;;;6285868;22;20007;-93
2023/05/29 22:53:24;;;;;;;40.00;19.33;;;19.50;99.90;;;;;;6281807;22;20026;-92
2023/05/29 22:59:34;;;;;;;45.25;19.05;;;19.40;99.90;;;;;;6309162;22;20037;-92
2023/05/29 23:06:03;;;;;;;30.33;17.33;;;19.30;99.90;;;;;;5989226;23;19906;-93
2023/05/29 23:08:37;;;;;;;38.90;18.52;;;19.30;99.90;;;;;;5986919;23;20011;-91
2023/05/29 23:11:07;;;;;;;43.05;18.52;;;19.30;99.90;;;;;;6100753;23;20509;-93
2023/05/29 23:13:33;;;;;;;34.33;18.70;;;19.30;99.90;;;;;;6101596;23;20013;-92
2023/05/29 23:27:09;;;;;;;47.47;20.33;;;19.20;99.90;;;;;;6294636;22;20324;-93
2023/05/29 23:29:37;;;;;;;50.03;20.92;;;19.30;99.90;;;;;;6105870;23;20013;-94
2023/05/29 23:32:13;;;;;;;47.47;19.67;;;19.20;99.90;;;;;;6105821;23;20074;-92
2023/05/29 23:34:44;;;;;;;54.85;21.08;;;19.20;99.90;;;;;;6130984;23;20006;-92
2023/05/29 23:38:00;;;;;;;;;;;;;;;;;;;;;
2023/05/29 23:57:50;;;;;;;;;;;;;;;;;;;;;
